sensor_id;sensor_type;location;lat;lon;timestamp;P1;durP1;ratioP1;P2;durP2;ratioP2
41643;SDS011;44236;48.098;11.582;2022-08-03T00:01:19;1.73;;;1.10;;
41643;SDS011;44236;48.098;11.582;2022-08-03T00:03:45;2.42;;;1.23;;
41643;SDS011;44236;48.098;11.582;2022-08-03T00:06:10;1.80;;;1.00;;
41643;SDS011;44236;48.098;11.582;2022-08-03T00:08:36;2.38;;;0.98;;
41643;SDS011;44236;48.098;11.582;2022-08-03T00:11:02;1.27;;;0.80;;
41643;SDS011;44236;48.098;11.582;2022-08-03T00:13:28;2.75;;;0.98;;
41643;SDS011;44236;48.098;11.582;2022-08-03T00:15:54;3.60;;;1.00;;
41643;SDS011;44236;48.098;11.582;2022-08-03T00:18:19;3.75;;;1.13;;
41643;SDS011;44236;48.098;11.582;2022-08-03T00:20:45;3.78;;;1.83;;
41643;SDS011;44236;48.098;11.582;2022-08-03T00:23:11;2.40;;;1.17;;
41643;SDS011;44236;48.098;11.582;2022-08-03T00:25:37;1.98;;;1.00;;
41643;SDS011;44236;48.098;11.582;2022-08-03T00:28:04;3.88;;;1.27;;
41643;SDS011;44236;48.098;11.582;2022-08-03T00:30:30;4.38;;;1.65;;
41643;SDS011;44236;48.098;11.582;2022-08-03T00:32:56;2.25;;;1.17;;
41643;SDS011;44236;48.098;11.582;2022-08-03T00:35:23;2.17;;;1.10;;
41643;SDS011;44236;48.098;11.582;2022-08-03T00:37:49;7.85;;;1.10;;
41643;SDS011;44236;48.098;11.582;2022-08-03T00:40:15;2.90;;;1.10;;
41643;SDS011;44236;48.098;11.582;2022-08-03T00:43:01;2.40;;;1.27;;
41643;SDS011;44236;48.098;11.582;2022-08-03T00:45:34;3.28;;;0.93;;
41643;SDS011;44236;48.098;11.582;2022-08-03T00:48:02;2.65;;;1.10;;
41643;SDS011;44236;48.098;11.582;2022-08-03T00:50:30;4.82;;;1.10;;
41643;SDS011;44236;48.098;11.582;2022-08-03T00:52:59;2.65;;;1.10;;
41643;SDS011;44236;48.098;11.582;2022-08-03T00:55:25;2.60;;;1.10;;
41643;SDS011;44236;48.098;11.582;2022-08-03T00:57:51;2.35;;;1.15;;
41643;SDS011;44236;48.098;11.582;2022-08-03T01:00:19;3.95;;;0.88;;
41643;SDS011;44236;48.098;11.582;2022-08-03T01:02:46;3.55;;;0.85;;
41643;SDS011;44236;48.098;11.582;2022-08-03T01:05:12;2.85;;;1.27;;
41643;SDS011;44236;48.098;11.582;2022-08-03T01:08:00;3.58;;;1.00;;
41643;SDS011;44236;48.098;11.582;2022-08-03T01:13:26;2.25;;;1.02;;
41643;SDS011;44236;48.098;11.582;2022-08-03T01:16:36;4.15;;;0.98;;
41643;SDS011;44236;48.098;11.582;2022-08-03T01:19:18;2.22;;;0.90;;
41643;SDS011;44236;48.098;11.582;2022-08-03T01:24:43;3.30;;;1.13;;
41643;SDS011;44236;48.098;11.582;2022-08-03T01:30:10;2.70;;;1.25;;
41643;SDS011;44236;48.098;11.582;2022-08-03T01:35:25;1.58;;;0.85;;
41643;SDS011;44236;48.098;11.582;2022-08-03T01:37:59;1.92;;;1.00;;
41643;SDS011;44236;48.098;11.582;2022-08-03T01:40:28;5.03;;;1.03;;
41643;SDS011;44236;48.098;11.582;2022-08-03T01:42:56;2.00;;;1.00;;
41643;SDS011;44236;48.098;11.582;2022-08-03T01:45:25;2.25;;;1.00;;
41643;SDS011;44236;48.098;11.582;2022-08-03T01:47:52;3.20;;;1.00;;
41643;SDS011;44236;48.098;11.582;2022-08-03T01:50:22;2.08;;;1.02;;
41643;SDS011;44236;48.098;11.582;2022-08-03T01:52:51;2.45;;;1.23;;
41643;SDS011;44236;48.098;11.582;2022-08-03T01:55:18;2.28;;;0.90;;
41643;SDS011;44236;48.098;11.582;2022-08-03T01:57:47;2.15;;;1.25;;
41643;SDS011;44236;48.098;11.582;2022-08-03T02:00:14;1.52;;;0.90;;
41643;SDS011;44236;48.098;11.582;2022-08-03T02:02:41;1.65;;;0.90;;
41643;SDS011;44236;48.098;11.582;2022-08-03T02:05:08;1.55;;;0.98;;
41643;SDS011;44236;48.098;11.582;2022-08-03T02:07:37;2.97;;;1.27;;
41643;SDS011;44236;48.098;11.582;2022-08-03T02:10:05;2.83;;;0.85;;
41643;SDS011;44236;48.098;11.582;2022-08-03T02:12:31;1.88;;;1.10;;
41643;SDS011;44236;48.098;11.582;2022-08-03T02:14:59;2.28;;;0.90;;
41643;SDS011;44236;48.098;11.582;2022-08-03T02:17:26;2.85;;;1.30;;
41643;SDS011;44236;48.098;11.582;2022-08-03T02:19:52;2.13;;;1.25;;
41643;SDS011;44236;48.098;11.582;2022-08-03T02:22:20;3.17;;;1.00;;
41643;SDS011;44236;48.098;11.582;2022-08-03T02:24:48;2.17;;;1.13;;
41643;SDS011;44236;48.098;11.582;2022-08-03T02:27:17;2.30;;;1.23;;
41643;SDS011;44236;48.098;11.582;2022-08-03T02:32:16;1.83;;;0.82;;
41643;SDS011;44236;48.098;11.582;2022-08-03T02:34:46;3.47;;;1.30;;
41643;SDS011;44236;48.098;11.582;2022-08-03T02:37:15;4.85;;;0.98;;
41643;SDS011;44236;48.098;11.582;2022-08-03T02:39:43;1.77;;;1.10;;
41643;SDS011;44236;48.098;11.582;2022-08-03T02:42:11;2.33;;;1.20;;
41643;SDS011;44236;48.098;11.582;2022-08-03T02:44:40;2.75;;;1.10;;
41643;SDS011;44236;48.098;11.582;2022-08-03T02:47:11;3.42;;;0.98;;
41643;SDS011;44236;48.098;11.582;2022-08-03T02:49:39;1.73;;;1.00;;
41643;SDS011;44236;48.098;11.582;2022-08-03T02:52:08;2.17;;;1.10;;
41643;SDS011;44236;48.098;11.582;2022-08-03T02:54:35;2.80;;;0.98;;
41643;SDS011;44236;48.098;11.582;2022-08-03T02:57:02;3.65;;;1.35;;
41643;SDS011;44236;48.098;11.582;2022-08-03T02:59:31;1.70;;;0.88;;
41643;SDS011;44236;48.098;11.582;2022-08-03T03:01:57;3.13;;;1.10;;
41643;SDS011;44236;48.098;11.582;2022-08-03T03:04:25;1.88;;;0.85;;
41643;SDS011;44236;48.098;11.582;2022-08-03T03:06:53;2.72;;;1.20;;
41643;SDS011;44236;48.098;11.582;2022-08-03T03:09:20;8.88;;;1.20;;
41643;SDS011;44236;48.098;11.582;2022-08-03T03:11:46;2.22;;;0.93;;
41643;SDS011;44236;48.098;11.582;2022-08-03T03:14:14;0.95;;;0.80;;
41643;SDS011;44236;48.098;11.582;2022-08-03T03:16:41;3.20;;;1.35;;
41643;SDS011;44236;48.098;11.582;2022-08-03T03:19:10;2.03;;;1.20;;
41643;SDS011;44236;48.098;11.582;2022-08-03T03:21:39;1.55;;;0.82;;
41643;SDS011;44236;48.098;11.582;2022-08-03T03:24:05;1.75;;;0.90;;
41643;SDS011;44236;48.098;11.582;2022-08-03T03:26:33;3.40;;;1.13;;
41643;SDS011;44236;48.098;11.582;2022-08-03T03:29:00;1.98;;;1.00;;
41643;SDS011;44236;48.098;11.582;2022-08-03T03:31:26;2.67;;;1.02;;
41643;SDS011;44236;48.098;11.582;2022-08-03T03:33:52;4.07;;;1.10;;
41643;SDS011;44236;48.098;11.582;2022-08-03T03:36:21;2.17;;;1.05;;
41643;SDS011;44236;48.098;11.582;2022-08-03T03:38:47;1.92;;;1.10;;
41643;SDS011;44236;48.098;11.582;2022-08-03T03:41:12;2.45;;;1.08;;
41643;SDS011;44236;48.098;11.582;2022-08-03T03:43:38;2.40;;;1.10;;
41643;SDS011;44236;48.098;11.582;2022-08-03T03:46:04;1.95;;;1.20;;
41643;SDS011;44236;48.098;11.582;2022-08-03T03:48:30;1.55;;;0.82;;
41643;SDS011;44236;48.098;11.582;2022-08-03T03:50:56;1.83;;;1.23;;
41643;SDS011;44236;48.098;11.582;2022-08-03T03:53:23;3.00;;;1.35;;
41643;SDS011;44236;48.098;11.582;2022-08-03T03:55:50;1.88;;;1.27;;
41643;SDS011;44236;48.098;11.582;2022-08-03T03:58:16;3.78;;;1.00;;
41643;SDS011;44236;48.098;11.582;2022-08-03T04:00:42;2.65;;;1.13;;
41643;SDS011;44236;48.098;11.582;2022-08-03T04:03:09;1.77;;;1.00;;
41643;SDS011;44236;48.098;11.582;2022-08-03T04:05:36;3.72;;;1.27;;
41643;SDS011;44236;48.098;11.582;2022-08-03T04:08:21;1.80;;;0.90;;
41643;SDS011;44236;48.098;11.582;2022-08-03T04:13:48;3.10;;;1.33;;
41643;SDS011;44236;48.098;11.582;2022-08-03T04:16:35;6.47;;;1.35;;
41643;SDS011;44236;48.098;11.582;2022-08-03T04:19:04;2.97;;;1.35;;
41643;SDS011;44236;48.098;11.582;2022-08-03T04:21:34;3.33;;;1.45;;
41643;SDS011;44236;48.098;11.582;2022-08-03T04:24:04;3.72;;;1.45;;
41643;SDS011;44236;48.098;11.582;2022-08-03T04:26:35;2.95;;;1.55;;
41643;SDS011;44236;48.098;11.582;2022-08-03T04:29:03;6.57;;;1.83;;
41643;SDS011;44236;48.098;11.582;2022-08-03T04:31:30;4.10;;;1.42;;
41643;SDS011;44236;48.098;11.582;2022-08-03T04:33:56;3.28;;;1.40;;
41643;SDS011;44236;48.098;11.582;2022-08-03T04:36:24;4.63;;;1.50;;
41643;SDS011;44236;48.098;11.582;2022-08-03T04:38:56;2.90;;;1.23;;
41643;SDS011;44236;48.098;11.582;2022-08-03T04:41:26;2.95;;;1.23;;
41643;SDS011;44236;48.098;11.582;2022-08-03T04:43:53;2.92;;;1.33;;
41643;SDS011;44236;48.098;11.582;2022-08-03T04:46:21;2.25;;;1.20;;
41643;SDS011;44236;48.098;11.582;2022-08-03T04:48:50;2.40;;;1.25;;
41643;SDS011;44236;48.098;11.582;2022-08-03T04:51:16;4.65;;;1.38;;
41643;SDS011;44236;48.098;11.582;2022-08-03T04:53:42;2.45;;;1.23;;
41643;SDS011;44236;48.098;11.582;2022-08-03T04:56:08;2.47;;;1.27;;
41643;SDS011;44236;48.098;11.582;2022-08-03T04:58:34;3.20;;;1.20;;
41643;SDS011;44236;48.098;11.582;2022-08-03T05:01:00;2.35;;;1.15;;
41643;SDS011;44236;48.098;11.582;2022-08-03T05:03:25;2.95;;;1.67;;
41643;SDS011;44236;48.098;11.582;2022-08-03T05:05:51;6.38;;;1.80;;
41643;SDS011;44236;48.098;11.582;2022-08-03T05:08:17;2.75;;;1.20;;
41643;SDS011;44236;48.098;11.582;2022-08-03T05:10:43;3.30;;;1.20;;
41643;SDS011;44236;48.098;11.582;2022-08-03T05:13:08;3.85;;;1.42;;
41643;SDS011;44236;48.098;11.582;2022-08-03T05:15:36;2.55;;;1.05;;
41643;SDS011;44236;48.098;11.582;2022-08-03T05:18:02;2.45;;;1.05;;
41643;SDS011;44236;48.098;11.582;2022-08-03T05:20:28;1.70;;;0.90;;
41643;SDS011;44236;48.098;11.582;2022-08-03T05:22:53;2.40;;;1.15;;
41643;SDS011;44236;48.098;11.582;2022-08-03T05:25:19;2.35;;;1.00;;
41643;SDS011;44236;48.098;11.582;2022-08-03T05:27:45;1.38;;;0.95;;
41643;SDS011;44236;48.098;11.582;2022-08-03T05:30:11;2.63;;;1.30;;
41643;SDS011;44236;48.098;11.582;2022-08-03T05:32:36;6.78;;;1.20;;
41643;SDS011;44236;48.098;11.582;2022-08-03T05:35:02;2.95;;;1.00;;
41643;SDS011;44236;48.098;11.582;2022-08-03T05:37:28;2.03;;;0.98;;
41643;SDS011;44236;48.098;11.582;2022-08-03T05:39:53;2.10;;;1.15;;
41643;SDS011;44236;48.098;11.582;2022-08-03T05:42:19;7.43;;;1.33;;
41643;SDS011;44236;48.098;11.582;2022-08-03T05:44:45;3.50;;;0.98;;
41643;SDS011;44236;48.098;11.582;2022-08-03T05:47:10;5.40;;;1.00;;
41643;SDS011;44236;48.098;11.582;2022-08-03T05:49:36;4.40;;;1.40;;
41643;SDS011;44236;48.098;11.582;2022-08-03T05:52:01;2.28;;;0.80;;
41643;SDS011;44236;48.098;11.582;2022-08-03T05:54:27;3.65;;;1.48;;
41643;SDS011;44236;48.098;11.582;2022-08-03T05:56:53;5.07;;;1.13;;
41643;SDS011;44236;48.098;11.582;2022-08-03T05:59:19;4.65;;;1.10;;
41643;SDS011;44236;48.098;11.582;2022-08-03T06:01:45;3.83;;;1.20;;
41643;SDS011;44236;48.098;11.582;2022-08-03T06:04:11;3.45;;;1.00;;
41643;SDS011;44236;48.098;11.582;2022-08-03T06:06:37;10.07;;;1.80;;
41643;SDS011;44236;48.098;11.582;2022-08-03T06:09:03;5.35;;;1.50;;
41643;SDS011;44236;48.098;11.582;2022-08-03T06:11:29;1.85;;;1.10;;
41643;SDS011;44236;48.098;11.582;2022-08-03T06:13:54;3.72;;;1.10;;
41643;SDS011;44236;48.098;11.582;2022-08-03T06:16:20;3.78;;;1.10;;
41643;SDS011;44236;48.098;11.582;2022-08-03T06:18:46;1.98;;;1.00;;
41643;SDS011;44236;48.098;11.582;2022-08-03T06:21:11;2.53;;;1.30;;
41643;SDS011;44236;48.098;11.582;2022-08-03T06:23:37;2.95;;;1.30;;
41643;SDS011;44236;48.098;11.582;2022-08-03T06:26:03;3.70;;;1.10;;
41643;SDS011;44236;48.098;11.582;2022-08-03T06:28:28;6.88;;;1.60;;
41643;SDS011;44236;48.098;11.582;2022-08-03T06:30:54;3.75;;;1.20;;
41643;SDS011;44236;48.098;11.582;2022-08-03T06:33:20;2.00;;;1.25;;
41643;SDS011;44236;48.098;11.582;2022-08-03T06:35:45;2.22;;;0.80;;
41643;SDS011;44236;48.098;11.582;2022-08-03T06:38:11;3.10;;;1.30;;
41643;SDS011;44236;48.098;11.582;2022-08-03T06:40:37;2.78;;;0.88;;
41643;SDS011;44236;48.098;11.582;2022-08-03T06:43:06;3.17;;;1.15;;
41643;SDS011;44236;48.098;11.582;2022-08-03T06:45:32;2.58;;;0.98;;
41643;SDS011;44236;48.098;11.582;2022-08-03T06:48:03;2.85;;;0.90;;
41643;SDS011;44236;48.098;11.582;2022-08-03T06:50:31;4.38;;;1.17;;
41643;SDS011;44236;48.098;11.582;2022-08-03T06:52:58;3.08;;;1.05;;
41643;SDS011;44236;48.098;11.582;2022-08-03T06:55:24;3.35;;;1.10;;
41643;SDS011;44236;48.098;11.582;2022-08-03T06:57:50;2.67;;;1.10;;
41643;SDS011;44236;48.098;11.582;2022-08-03T07:00:16;1.88;;;0.80;;
41643;SDS011;44236;48.098;11.582;2022-08-03T07:02:43;2.63;;;1.02;;
41643;SDS011;44236;48.098;11.582;2022-08-03T07:05:09;2.08;;;1.10;;
41643;SDS011;44236;48.098;11.582;2022-08-03T07:07:35;1.70;;;0.80;;
41643;SDS011;44236;48.098;11.582;2022-08-03T07:10:01;2.08;;;1.10;;
41643;SDS011;44236;48.098;11.582;2022-08-03T07:12:27;4.78;;;1.30;;
41643;SDS011;44236;48.098;11.582;2022-08-03T07:14:54;5.13;;;1.10;;
41643;SDS011;44236;48.098;11.582;2022-08-03T07:17:21;3.03;;;1.42;;
41643;SDS011;44236;48.098;11.582;2022-08-03T07:19:47;3.88;;;1.20;;
41643;SDS011;44236;48.098;11.582;2022-08-03T07:22:12;4.05;;;1.02;;
41643;SDS011;44236;48.098;11.582;2022-08-03T07:24:38;1.75;;;0.90;;
41643;SDS011;44236;48.098;11.582;2022-08-03T07:27:05;2.55;;;1.05;;
41643;SDS011;44236;48.098;11.582;2022-08-03T07:29:32;3.33;;;1.20;;
41643;SDS011;44236;48.098;11.582;2022-08-03T07:31:58;1.95;;;1.00;;
41643;SDS011;44236;48.098;11.582;2022-08-03T07:34:24;3.45;;;0.80;;
41643;SDS011;44236;48.098;11.582;2022-08-03T07:36:50;2.72;;;1.25;;
41643;SDS011;44236;48.098;11.582;2022-08-03T07:39:15;2.85;;;1.05;;
41643;SDS011;44236;48.098;11.582;2022-08-03T07:41:41;1.95;;;1.00;;
41643;SDS011;44236;48.098;11.582;2022-08-03T07:44:07;3.53;;;1.10;;
41643;SDS011;44236;48.098;11.582;2022-08-03T07:46:32;2.72;;;0.90;;
41643;SDS011;44236;48.098;11.582;2022-08-03T07:48:58;2.80;;;1.20;;
41643;SDS011;44236;48.098;11.582;2022-08-03T07:51:23;1.67;;;0.90;;
41643;SDS011;44236;48.098;11.582;2022-08-03T07:53:50;2.85;;;0.93;;
41643;SDS011;44236;48.098;11.582;2022-08-03T07:56:16;3.83;;;0.88;;
41643;SDS011;44236;48.098;11.582;2022-08-03T07:58:41;1.45;;;0.90;;
41643;SDS011;44236;48.098;11.582;2022-08-03T08:01:07;3.83;;;1.27;;
41643;SDS011;44236;48.098;11.582;2022-08-03T08:03:33;2.33;;;1.10;;
41643;SDS011;44236;48.098;11.582;2022-08-03T08:05:58;4.32;;;0.95;;
41643;SDS011;44236;48.098;11.582;2022-08-03T08:08:24;2.08;;;1.08;;
41643;SDS011;44236;48.098;11.582;2022-08-03T08:10:50;1.92;;;0.90;;
41643;SDS011;44236;48.098;11.582;2022-08-03T08:13:15;4.70;;;1.48;;
41643;SDS011;44236;48.098;11.582;2022-08-03T08:15:41;4.22;;;1.08;;
41643;SDS011;44236;48.098;11.582;2022-08-03T08:18:07;2.78;;;1.10;;
41643;SDS011;44236;48.098;11.582;2022-08-03T08:20:33;1.90;;;0.77;;
41643;SDS011;44236;48.098;11.582;2022-08-03T08:23:02;4.68;;;1.25;;
41643;SDS011;44236;48.098;11.582;2022-08-03T08:25:29;3.42;;;0.90;;
41643;SDS011;44236;48.098;11.582;2022-08-03T08:27:56;8.07;;;1.10;;
41643;SDS011;44236;48.098;11.582;2022-08-03T08:30:25;1.90;;;1.00;;
41643;SDS011;44236;48.098;11.582;2022-08-03T08:32:51;1.73;;;1.13;;
41643;SDS011;44236;48.098;11.582;2022-08-03T08:35:17;1.30;;;0.80;;
41643;SDS011;44236;48.098;11.582;2022-08-03T08:37:43;4.43;;;0.90;;
41643;SDS011;44236;48.098;11.582;2022-08-03T08:40:10;2.20;;;1.00;;
41643;SDS011;44236;48.098;11.582;2022-08-03T08:42:38;2.08;;;1.20;;
41643;SDS011;44236;48.098;11.582;2022-08-03T08:45:07;2.67;;;1.20;;
41643;SDS011;44236;48.098;11.582;2022-08-03T08:47:38;4.05;;;1.50;;
41643;SDS011;44236;48.098;11.582;2022-08-03T08:50:06;3.05;;;1.40;;
41643;SDS011;44236;48.098;11.582;2022-08-03T08:52:33;2.97;;;1.20;;
41643;SDS011;44236;48.098;11.582;2022-08-03T08:55:00;6.75;;;1.60;;
41643;SDS011;44236;48.098;11.582;2022-08-03T08:57:29;8.57;;;2.35;;
41643;SDS011;44236;48.098;11.582;2022-08-03T08:59:57;9.43;;;2.70;;
41643;SDS011;44236;48.098;11.582;2022-08-03T09:02:23;10.48;;;3.70;;
41643;SDS011;44236;48.098;11.582;2022-08-03T09:04:49;6.15;;;2.45;;
41643;SDS011;44236;48.098;11.582;2022-08-03T09:07:15;7.70;;;2.80;;
41643;SDS011;44236;48.098;11.582;2022-08-03T09:09:41;3.95;;;1.75;;
41643;SDS011;44236;48.098;11.582;2022-08-03T09:12:08;6.22;;;2.08;;
41643;SDS011;44236;48.098;11.582;2022-08-03T09:14:34;6.18;;;1.95;;
41643;SDS011;44236;48.098;11.582;2022-08-03T09:17:00;4.88;;;2.00;;
41643;SDS011;44236;48.098;11.582;2022-08-03T09:19:27;4.10;;;1.90;;
41643;SDS011;44236;48.098;11.582;2022-08-03T09:24:54;8.52;;;1.88;;
41643;SDS011;44236;48.098;11.582;2022-08-03T09:27:22;6.03;;;1.58;;
41643;SDS011;44236;48.098;11.582;2022-08-03T09:29:48;7.53;;;2.03;;
41643;SDS011;44236;48.098;11.582;2022-08-03T09:32:18;6.43;;;1.75;;
41643;SDS011;44236;48.098;11.582;2022-08-03T09:34:45;19.00;;;6.72;;
41643;SDS011;44236;48.098;11.582;2022-08-03T09:37:17;14.45;;;4.70;;
41643;SDS011;44236;48.098;11.582;2022-08-03T09:39:45;8.13;;;4.10;;
41643;SDS011;44236;48.098;11.582;2022-08-03T09:42:15;7.05;;;2.83;;
41643;SDS011;44236;48.098;11.582;2022-08-03T09:44:46;12.93;;;2.42;;
41643;SDS011;44236;48.098;11.582;2022-08-03T09:47:14;8.82;;;2.53;;
41643;SDS011;44236;48.098;11.582;2022-08-03T09:49:41;7.25;;;2.63;;
41643;SDS011;44236;48.098;11.582;2022-08-03T09:52:20;5.95;;;2.15;;
41643;SDS011;44236;48.098;11.582;2022-08-03T09:54:53;6.10;;;2.20;;
41643;SDS011;44236;48.098;11.582;2022-08-03T09:57:23;4.30;;;1.67;;
41643;SDS011;44236;48.098;11.582;2022-08-03T09:59:50;3.93;;;1.83;;
41643;SDS011;44236;48.098;11.582;2022-08-03T10:02:24;2.83;;;1.58;;
41643;SDS011;44236;48.098;11.582;2022-08-03T10:04:51;4.05;;;1.65;;
41643;SDS011;44236;48.098;11.582;2022-08-03T10:07:21;5.10;;;1.85;;
41643;SDS011;44236;48.098;11.582;2022-08-03T10:09:58;7.10;;;1.77;;
41643;SDS011;44236;48.098;11.582;2022-08-03T10:12:25;3.97;;;1.50;;
41643;SDS011;44236;48.098;11.582;2022-08-03T10:14:51;6.88;;;1.70;;
41643;SDS011;44236;48.098;11.582;2022-08-03T10:17:18;6.30;;;1.80;;
41643;SDS011;44236;48.098;11.582;2022-08-03T10:19:45;4.18;;;1.60;;
41643;SDS011;44236;48.098;11.582;2022-08-03T10:22:26;3.60;;;1.52;;
41643;SDS011;44236;48.098;11.582;2022-08-03T10:24:59;7.10;;;2.20;;
41643;SDS011;44236;48.098;11.582;2022-08-03T10:27:31;4.57;;;1.95;;
41643;SDS011;44236;48.098;11.582;2022-08-03T10:30:08;8.00;;;2.97;;
41643;SDS011;44236;48.098;11.582;2022-08-03T10:35:16;9.48;;;2.53;;
41643;SDS011;44236;48.098;11.582;2022-08-03T10:37:51;5.68;;;1.90;;
41643;SDS011;44236;48.098;11.582;2022-08-03T10:40:22;5.53;;;2.53;;
41643;SDS011;44236;48.098;11.582;2022-08-03T10:42:51;4.57;;;2.05;;
41643;SDS011;44236;48.098;11.582;2022-08-03T10:45:25;4.85;;;1.80;;
41643;SDS011;44236;48.098;11.582;2022-08-03T10:47:52;4.47;;;2.15;;
41643;SDS011;44236;48.098;11.582;2022-08-03T10:50:21;5.30;;;1.92;;
41643;SDS011;44236;48.098;11.582;2022-08-03T10:55:57;4.22;;;1.50;;
41643;SDS011;44236;48.098;11.582;2022-08-03T11:01:09;5.97;;;1.60;;
41643;SDS011;44236;48.098;11.582;2022-08-03T11:06:20;3.78;;;1.70;;
41643;SDS011;44236;48.098;11.582;2022-08-03T11:08:47;3.55;;;1.77;;
41643;SDS011;44236;48.098;11.582;2022-08-03T11:13:59;2.63;;;1.52;;
41643;SDS011;44236;48.098;11.582;2022-08-03T11:16:29;3.45;;;1.48;;
41643;SDS011;44236;48.098;11.582;2022-08-03T11:27:27;8.43;;;3.00;;
41643;SDS011;44236;48.098;11.582;2022-08-03T11:30:02;6.95;;;2.10;;
41643;SDS011;44236;48.098;11.582;2022-08-03T11:40:35;5.70;;;2.10;;
41643;SDS011;44236;48.098;11.582;2022-08-03T11:45:56;4.82;;;2.03;;
41643;SDS011;44236;48.098;11.582;2022-08-03T11:48:35;7.65;;;1.65;;
41643;SDS011;44236;48.098;11.582;2022-08-03T11:51:05;4.05;;;1.50;;
41643;SDS011;44236;48.098;11.582;2022-08-03T11:53:32;3.42;;;1.65;;
41643;SDS011;44236;48.098;11.582;2022-08-03T11:55:59;4.18;;;1.80;;
41643;SDS011;44236;48.098;11.582;2022-08-03T11:58:26;5.22;;;1.70;;
41643;SDS011;44236;48.098;11.582;2022-08-03T12:00:52;3.67;;;1.52;;
41643;SDS011;44236;48.098;11.582;2022-08-03T12:03:30;2.83;;;1.42;;
41643;SDS011;44236;48.098;11.582;2022-08-03T12:05:56;2.70;;;1.35;;
41643;SDS011;44236;48.098;11.582;2022-08-03T12:10:51;4.90;;;1.40;;
41643;SDS011;44236;48.098;11.582;2022-08-03T12:13:18;4.35;;;1.40;;
41643;SDS011;44236;48.098;11.582;2022-08-03T12:15:54;3.33;;;1.75;;
41643;SDS011;44236;48.098;11.582;2022-08-03T12:18:22;3.78;;;1.45;;
41643;SDS011;44236;48.098;11.582;2022-08-03T12:20:49;3.00;;;1.35;;
41643;SDS011;44236;48.098;11.582;2022-08-03T12:23:16;4.75;;;1.48;;
41643;SDS011;44236;48.098;11.582;2022-08-03T12:25:44;2.67;;;1.52;;
41643;SDS011;44236;48.098;11.582;2022-08-03T12:28:13;2.83;;;1.40;;
41643;SDS011;44236;48.098;11.582;2022-08-03T12:30:43;4.18;;;1.25;;
41643;SDS011;44236;48.098;11.582;2022-08-03T12:33:23;3.30;;;1.40;;
41643;SDS011;44236;48.098;11.582;2022-08-03T12:36:11;4.43;;;0.85;;
41643;SDS011;44236;48.098;11.582;2022-08-03T12:38:36;2.17;;;1.15;;
41643;SDS011;44236;48.098;11.582;2022-08-03T12:43:30;3.70;;;0.90;;
41643;SDS011;44236;48.098;11.582;2022-08-03T12:46:12;2.70;;;1.02;;
41643;SDS011;44236;48.098;11.582;2022-08-03T12:51:30;5.95;;;1.10;;
41643;SDS011;44236;48.098;11.582;2022-08-03T12:53:59;5.68;;;1.30;;
41643;SDS011;44236;48.098;11.582;2022-08-03T12:56:25;5.65;;;1.27;;
41643;SDS011;44236;48.098;11.582;2022-08-03T12:58:51;5.15;;;1.08;;
41643;SDS011;44236;48.098;11.582;2022-08-03T13:01:17;1.83;;;0.90;;
41643;SDS011;44236;48.098;11.582;2022-08-03T13:03:46;1.92;;;1.08;;
41643;SDS011;44236;48.098;11.582;2022-08-03T13:06:19;3.03;;;1.10;;
41643;SDS011;44236;48.098;11.582;2022-08-03T13:11:18;1.83;;;0.93;;
41643;SDS011;44236;48.098;11.582;2022-08-03T13:13:49;2.15;;;1.23;;
41643;SDS011;44236;48.098;11.582;2022-08-03T13:16:16;2.13;;;1.10;;
41643;SDS011;44236;48.098;11.582;2022-08-03T13:18:42;3.00;;;0.95;;
41643;SDS011;44236;48.098;11.582;2022-08-03T13:21:10;1.30;;;0.60;;
41643;SDS011;44236;48.098;11.582;2022-08-03T13:23:37;1.80;;;0.82;;
41643;SDS011;44236;48.098;11.582;2022-08-03T13:26:02;1.48;;;0.90;;
41643;SDS011;44236;48.098;11.582;2022-08-03T13:28:28;1.70;;;1.00;;
41643;SDS011;44236;48.098;11.582;2022-08-03T13:30:54;1.80;;;1.05;;
41643;SDS011;44236;48.098;11.582;2022-08-03T13:33:19;2.08;;;0.88;;
41643;SDS011;44236;48.098;11.582;2022-08-03T13:35:45;4.10;;;1.10;;
41643;SDS011;44236;48.098;11.582;2022-08-03T13:38:11;1.55;;;1.00;;
41643;SDS011;44236;48.098;11.582;2022-08-03T13:40:36;2.75;;;0.90;;
41643;SDS011;44236;48.098;11.582;2022-08-03T13:43:02;2.30;;;1.13;;
41643;SDS011;44236;48.098;11.582;2022-08-03T13:45:28;1.90;;;0.90;;
41643;SDS011;44236;48.098;11.582;2022-08-03T13:47:54;1.42;;;0.80;;
41643;SDS011;44236;48.098;11.582;2022-08-03T13:50:19;5.28;;;1.48;;
41643;SDS011;44236;48.098;11.582;2022-08-03T13:52:45;2.38;;;0.80;;
41643;SDS011;44236;48.098;11.582;2022-08-03T13:55:11;1.58;;;0.75;;
41643;SDS011;44236;48.098;11.582;2022-08-03T13:57:37;1.92;;;1.10;;
41643;SDS011;44236;48.098;11.582;2022-08-03T14:00:03;1.75;;;0.93;;
41643;SDS011;44236;48.098;11.582;2022-08-03T14:02:31;2.75;;;0.80;;
41643;SDS011;44236;48.098;11.582;2022-08-03T14:04:56;2.33;;;0.75;;
41643;SDS011;44236;48.098;11.582;2022-08-03T14:07:22;6.95;;;1.40;;
41643;SDS011;44236;48.098;11.582;2022-08-03T14:09:47;2.35;;;1.10;;
41643;SDS011;44236;48.098;11.582;2022-08-03T14:12:13;2.85;;;1.20;;
41643;SDS011;44236;48.098;11.582;2022-08-03T14:14:39;2.78;;;0.75;;
41643;SDS011;44236;48.098;11.582;2022-08-03T14:17:04;1.25;;;0.88;;
41643;SDS011;44236;48.098;11.582;2022-08-03T14:19:30;1.42;;;0.90;;
41643;SDS011;44236;48.098;11.582;2022-08-03T14:21:56;2.55;;;0.88;;
41643;SDS011;44236;48.098;11.582;2022-08-03T14:24:22;2.78;;;1.17;;
41643;SDS011;44236;48.098;11.582;2022-08-03T14:26:48;2.70;;;1.08;;
41643;SDS011;44236;48.098;11.582;2022-08-03T14:29:13;2.20;;;1.05;;
41643;SDS011;44236;48.098;11.582;2022-08-03T14:31:39;4.70;;;1.00;;
41643;SDS011;44236;48.098;11.582;2022-08-03T14:34:04;5.40;;;1.05;;
41643;SDS011;44236;48.098;11.582;2022-08-03T14:36:30;2.40;;;1.55;;
41643;SDS011;44236;48.098;11.582;2022-08-03T14:38:56;1.85;;;1.00;;
41643;SDS011;44236;48.098;11.582;2022-08-03T14:41:21;1.80;;;1.02;;
41643;SDS011;44236;48.098;11.582;2022-08-03T14:43:47;2.20;;;0.95;;
41643;SDS011;44236;48.098;11.582;2022-08-03T14:46:12;1.88;;;1.00;;
41643;SDS011;44236;48.098;11.582;2022-08-03T14:48:38;3.10;;;1.08;;
41643;SDS011;44236;48.098;11.582;2022-08-03T14:51:04;6.97;;;1.00;;
41643;SDS011;44236;48.098;11.582;2022-08-03T14:53:30;2.17;;;0.90;;
41643;SDS011;44236;48.098;11.582;2022-08-03T14:55:56;2.83;;;1.10;;
41643;SDS011;44236;48.098;11.582;2022-08-03T14:58:22;1.63;;;0.98;;
41643;SDS011;44236;48.098;11.582;2022-08-03T15:00:49;3.63;;;1.40;;
41643;SDS011;44236;48.098;11.582;2022-08-03T15:03:18;1.90;;;1.00;;
41643;SDS011;44236;48.098;11.582;2022-08-03T15:05:47;2.05;;;1.08;;
41643;SDS011;44236;48.098;11.582;2022-08-03T15:08:13;6.32;;;1.13;;
41643;SDS011;44236;48.098;11.582;2022-08-03T15:10:39;2.08;;;0.93;;
41643;SDS011;44236;48.098;11.582;2022-08-03T15:13:04;4.55;;;0.93;;
41643;SDS011;44236;48.098;11.582;2022-08-03T15:15:30;3.00;;;1.02;;
41643;SDS011;44236;48.098;11.582;2022-08-03T15:17:55;2.47;;;0.90;;
41643;SDS011;44236;48.098;11.582;2022-08-03T15:20:21;1.52;;;0.90;;
41643;SDS011;44236;48.098;11.582;2022-08-03T15:22:46;3.80;;;1.00;;
41643;SDS011;44236;48.098;11.582;2022-08-03T15:25:12;3.55;;;0.90;;
41643;SDS011;44236;48.098;11.582;2022-08-03T15:27:38;5.25;;;1.35;;
41643;SDS011;44236;48.098;11.582;2022-08-03T15:30:03;3.63;;;1.75;;
41643;SDS011;44236;48.098;11.582;2022-08-03T15:32:30;2.20;;;0.90;;
41643;SDS011;44236;48.098;11.582;2022-08-03T15:34:57;2.63;;;0.95;;
41643;SDS011;44236;48.098;11.582;2022-08-03T15:37:23;3.75;;;1.90;;
41643;SDS011;44236;48.098;11.582;2022-08-03T15:39:49;4.30;;;1.25;;